createdAt,value
2018-09-24T00:00:37.678Z,2.27
2018-09-24T00:03:06.484Z,2.53
2018-09-24T00:05:35.273Z,2.00
2018-09-24T00:08:04.068Z,2.43
2018-09-24T00:10:32.848Z,2.03
2018-09-24T00:13:01.642Z,2.27
2018-09-24T00:15:30.824Z,2.27
2018-09-24T00:17:59.604Z,2.50
2018-09-24T00:20:28.388Z,2.03
2018-09-24T00:22:57.176Z,2.43
2018-09-24T00:25:26.256Z,2.50
2018-09-24T00:27:56.010Z,2.17
2018-09-24T00:30:24.798Z,2.00
2018-09-24T00:32:54.128Z,2.20
2018-09-24T00:35:23.016Z,1.90
2018-09-24T00:37:51.886Z,2.33
2018-09-24T00:40:20.686Z,1.80
2018-09-24T00:42:49.496Z,2.47
2018-09-24T00:45:18.348Z,2.10
2018-09-24T00:47:47.118Z,2.33
2018-09-24T00:50:15.907Z,1.93
2018-09-24T00:52:44.688Z,1.97
2018-09-24T00:55:13.476Z,1.80
2018-09-24T00:57:42.308Z,1.90
2018-09-24T01:00:11.091Z,2.13
2018-09-24T01:02:39.884Z,2.17
2018-09-24T01:05:08.684Z,1.60
2018-09-24T01:07:37.484Z,1.67
2018-09-24T01:10:06.356Z,1.67
2018-09-24T01:12:36.089Z,1.63
2018-09-24T01:15:05.081Z,1.60
2018-09-24T01:17:33.965Z,1.77
2018-09-24T01:20:03.488Z,1.50
2018-09-24T01:22:32.351Z,1.67
2018-09-24T01:25:01.113Z,1.70
2018-09-24T01:27:29.888Z,1.40
2018-09-24T01:29:58.688Z,1.47
2018-09-24T01:32:27.464Z,1.70
2018-09-24T01:34:56.292Z,1.50
2018-09-24T01:37:25.080Z,1.67
2018-09-24T01:39:53.896Z,1.43
2018-09-24T01:42:22.684Z,1.30
2018-09-24T01:44:51.524Z,1.60
2018-09-24T01:47:20.364Z,1.50
2018-09-24T01:49:49.152Z,1.50
2018-09-24T01:52:17.940Z,1.50
2018-09-24T01:54:46.732Z,1.47
2018-09-24T01:57:17.284Z,1.80
2018-09-24T01:59:51.376Z,1.70
2018-09-24T02:02:20.272Z,1.50
2018-09-24T02:04:49.440Z,1.23
2018-09-24T02:07:18.385Z,1.70
2018-09-24T02:09:48.108Z,1.17
2018-09-24T02:12:16.907Z,1.30
2018-09-24T02:14:45.748Z,1.37
2018-09-24T02:17:16.035Z,1.40
2018-09-24T02:19:45.735Z,1.47
2018-09-24T02:22:14.893Z,1.77
2018-09-24T02:24:43.648Z,1.30
2018-09-24T02:27:12.469Z,1.60
2018-09-24T02:29:41.234Z,1.40
2018-09-24T02:32:10.020Z,1.80
2018-09-24T02:34:39.521Z,1.60
2018-09-24T02:37:08.358Z,1.60
2018-09-24T02:39:37.172Z,1.67
2018-09-24T02:42:05.969Z,1.70
2018-09-24T02:44:34.776Z,1.80
2018-09-24T02:47:03.572Z,1.77
2018-09-24T02:49:32.389Z,1.60
2018-09-24T02:52:02.404Z,1.80
2018-09-24T02:54:32.056Z,1.50
2018-09-24T02:57:00.844Z,1.87
2018-09-24T02:59:29.660Z,1.50
2018-09-24T03:01:58.497Z,1.90
2018-09-24T03:04:27.276Z,1.40
2018-09-24T03:06:56.104Z,1.50
2018-09-24T03:09:24.905Z,1.87
2018-09-24T03:11:53.684Z,1.93
2018-09-24T03:14:26.474Z,1.90
2018-09-24T03:16:55.518Z,1.93
2018-09-24T03:19:24.663Z,2.20
2018-09-24T03:21:53.517Z,2.00
2018-09-24T03:24:22.323Z,2.00
2018-09-24T03:26:51.134Z,2.30
2018-09-24T03:29:22.555Z,1.80
2018-09-24T03:31:51.748Z,2.03
2018-09-24T03:34:20.601Z,2.30
2018-09-24T03:36:49.988Z,2.30
2018-09-24T03:39:19.129Z,2.10
2018-09-24T03:41:47.973Z,1.90
2018-09-24T03:44:16.860Z,2.03
2018-09-24T03:46:47.968Z,2.00
2018-09-24T03:49:16.788Z,1.90
2018-09-24T03:51:46.850Z,1.93
2018-09-24T03:54:15.660Z,1.93
2018-09-24T03:56:44.450Z,1.97
2018-09-24T03:59:13.272Z,1.97
2018-09-24T04:01:42.094Z,2.10
2018-09-24T04:04:16.132Z,1.70
2018-09-24T04:06:50.249Z,1.70
2018-09-24T04:09:24.388Z,2.10
2018-09-24T04:11:58.354Z,1.77
2018-09-24T04:14:32.459Z,1.53
2018-09-24T04:17:06.644Z,1.50
2018-09-24T04:19:40.790Z,2.50
2018-09-24T04:22:15.037Z,2.00
2018-09-24T04:24:49.735Z,1.43
2018-09-24T04:27:23.788Z,1.53
2018-09-24T04:29:57.905Z,1.90
2018-09-24T04:32:32.047Z,1.63
2018-09-24T04:35:06.144Z,1.70
2018-09-24T04:37:40.280Z,1.77
2018-09-24T04:40:14.357Z,1.67
2018-09-24T04:42:48.497Z,1.83
2018-09-24T04:45:22.650Z,1.93
2018-09-24T04:47:56.763Z,2.43
2018-09-24T04:50:30.989Z,1.70
2018-09-24T04:53:05.208Z,1.77
2018-09-24T04:55:39.345Z,1.73
2018-09-24T04:58:13.523Z,1.80
2018-09-24T05:00:47.760Z,1.70
2018-09-24T05:03:21.960Z,1.80
2018-09-24T05:05:56.040Z,1.80
2018-09-24T05:08:30.157Z,1.87
2018-09-24T05:11:04.160Z,1.60
2018-09-24T05:13:38.360Z,2.47
2018-09-24T05:16:12.450Z,1.90
2018-09-24T05:18:46.441Z,1.73
2018-09-24T05:21:20.570Z,1.53
2018-09-24T05:23:55.717Z,1.80
2018-09-24T05:26:29.703Z,1.80
2018-09-24T05:29:03.925Z,1.70
2018-09-24T05:31:38.112Z,1.90
2018-09-24T05:34:12.423Z,1.40
2018-09-24T05:36:46.428Z,2.00
2018-09-24T05:39:20.627Z,1.50
2018-09-24T05:41:54.854Z,1.83
2018-09-24T05:44:30.285Z,1.90
2018-09-24T05:47:04.333Z,1.33
2018-09-24T05:49:38.379Z,1.80
2018-09-24T05:52:12.769Z,1.83
2018-09-24T05:54:46.932Z,1.57
2018-09-24T05:57:21.128Z,1.63
2018-09-24T05:59:55.304Z,1.67
2018-09-24T06:02:29.425Z,1.63
2018-09-24T06:05:03.545Z,1.70
2018-09-24T06:07:37.796Z,1.60
2018-09-24T06:10:12.030Z,1.47
2018-09-24T06:12:46.336Z,1.37
2018-09-24T06:15:20.504Z,1.60
2018-09-24T06:17:54.653Z,1.47
2018-09-24T06:20:28.892Z,1.20
2018-09-24T06:23:03.084Z,1.07
2018-09-24T06:25:37.264Z,1.20
2018-09-24T06:28:11.412Z,1.20
2018-09-24T06:30:45.528Z,1.40
2018-09-24T06:33:19.616Z,1.33
2018-09-24T06:35:53.859Z,1.10
2018-09-24T06:38:28.001Z,0.87
2018-09-24T06:41:02.201Z,0.87
2018-09-24T06:43:36.280Z,1.27
2018-09-24T06:46:10.468Z,1.20
2018-09-24T06:48:44.743Z,1.13
2018-09-24T06:51:18.829Z,1.17
2018-09-24T06:53:52.933Z,1.10
2018-09-24T06:56:27.100Z,1.17
2018-09-24T06:59:01.221Z,1.03
2018-09-24T07:01:35.240Z,1.23
2018-09-24T07:04:09.360Z,0.90
2018-09-24T07:06:43.500Z,1.10
2018-09-24T07:09:17.647Z,1.13
2018-09-24T07:11:51.817Z,1.20
2018-09-24T07:14:26.004Z,0.97
2018-09-24T07:17:00.176Z,1.47
2018-09-24T07:19:34.252Z,1.10
2018-09-24T07:22:09.757Z,1.00
2018-09-24T07:24:43.912Z,1.00
2018-09-24T07:27:18.089Z,0.90
2018-09-24T07:29:52.374Z,2.03
2018-09-24T07:32:26.592Z,0.80
2018-09-24T07:35:00.632Z,0.97
2018-09-24T07:37:34.852Z,1.00
2018-09-24T07:40:09.382Z,1.10
2018-09-24T07:42:43.372Z,0.77
2018-09-24T07:45:17.456Z,1.07
2018-09-24T07:47:51.548Z,1.00
2018-09-24T07:50:25.738Z,1.30
2018-09-24T07:52:59.960Z,1.00
2018-09-24T07:55:34.414Z,0.70
2018-09-24T07:58:08.480Z,0.70
2018-09-24T08:00:42.726Z,0.90
2018-09-24T08:03:16.984Z,0.90
2018-09-24T08:05:51.130Z,0.87
2018-09-24T08:08:25.365Z,0.97
2018-09-24T08:10:59.564Z,1.30
2018-09-24T08:13:33.707Z,1.13
2018-09-24T08:16:07.914Z,1.00
2018-09-24T08:18:42.152Z,1.03
2018-09-24T08:21:16.428Z,1.03
2018-09-24T08:23:50.641Z,0.90
2018-09-24T08:26:24.824Z,0.70
2018-09-24T08:28:58.942Z,0.70
2018-09-24T08:31:33.096Z,1.00
2018-09-24T08:34:08.126Z,0.90
2018-09-24T08:36:42.269Z,1.30
2018-09-24T08:39:16.264Z,0.90
2018-09-24T08:41:50.378Z,0.73
2018-09-24T08:44:24.593Z,1.13
2018-09-24T08:46:58.709Z,0.83
2018-09-24T08:49:32.914Z,0.80
2018-09-24T08:52:07.211Z,1.20
2018-09-24T08:54:42.347Z,1.10
2018-09-24T08:57:16.610Z,0.83
2018-09-24T08:59:50.614Z,0.93
2018-09-24T09:02:24.780Z,0.97
2018-09-24T09:04:58.928Z,0.83
2018-09-24T09:07:33.147Z,0.70
2018-09-24T09:10:08.303Z,1.03
2018-09-24T09:12:42.552Z,1.33
2018-09-24T09:15:16.805Z,0.93
2018-09-24T09:17:51.063Z,1.33
2018-09-24T09:20:25.152Z,1.23
2018-09-24T09:22:59.345Z,1.10
2018-09-24T09:25:33.536Z,1.07
2018-09-24T09:28:07.664Z,1.10
2018-09-24T09:30:41.775Z,1.00
2018-09-24T09:33:15.960Z,0.80
2018-09-24T09:35:50.195Z,1.00
2018-09-24T09:38:24.436Z,0.77
2018-09-24T09:40:58.784Z,0.80
2018-09-24T09:43:33.900Z,1.10
2018-09-24T09:46:07.996Z,0.90
2018-09-24T09:48:42.252Z,1.10
2018-09-24T09:51:16.444Z,1.10
2018-09-24T09:53:51.391Z,0.60
2018-09-24T09:56:25.402Z,0.93
2018-09-24T09:58:59.519Z,1.07
2018-09-24T10:01:33.785Z,1.07
2018-09-24T10:04:07.964Z,0.80
2018-09-24T10:06:42.289Z,0.90
2018-09-24T10:09:16.396Z,0.90
2018-09-24T10:11:50.520Z,0.97
2018-09-24T10:14:24.717Z,0.87
2018-09-24T10:16:58.760Z,1.00
2018-09-24T10:19:32.997Z,0.97
2018-09-24T10:22:06.965Z,0.90
2018-09-24T10:24:41.212Z,1.20
2018-09-24T10:27:15.476Z,0.93
2018-09-24T10:29:49.518Z,1.10
2018-09-24T10:32:23.914Z,0.90
2018-09-24T10:34:57.992Z,1.10
2018-09-24T10:37:32.467Z,1.10
2018-09-24T10:40:06.695Z,0.90
2018-09-24T10:42:40.946Z,1.20
2018-09-24T10:45:15.095Z,0.80
2018-09-24T10:47:49.357Z,0.90
2018-09-24T10:50:23.752Z,0.70
2018-09-24T10:52:57.943Z,1.83
2018-09-24T10:55:32.186Z,0.70
2018-09-24T10:58:06.255Z,0.67
2018-09-24T11:00:40.517Z,0.83
2018-09-24T11:03:14.630Z,0.77
2018-09-24T11:05:48.850Z,0.50
2018-09-24T11:08:23.304Z,0.70
2018-09-24T11:10:57.432Z,0.70
2018-09-24T11:13:31.931Z,0.60
2018-09-24T11:16:06.091Z,0.63
2018-09-24T11:18:40.013Z,0.70
2018-09-24T11:21:14.212Z,0.60
2018-09-24T11:23:48.304Z,0.53
2018-09-24T11:28:56.833Z,0.60
2018-09-24T11:31:31.328Z,0.37
2018-09-24T11:34:05.397Z,0.80
2018-09-24T11:36:40.328Z,0.50
2018-09-24T11:39:14.871Z,0.53
2018-09-24T11:41:49.001Z,0.90
2018-09-24T11:44:23.095Z,0.60
2018-09-24T11:46:57.392Z,0.50
2018-09-24T11:49:31.581Z,0.73
2018-09-24T11:52:05.778Z,0.70
2018-09-24T11:54:39.850Z,0.87
2018-09-24T11:57:13.934Z,0.73
2018-09-24T11:59:48.114Z,0.73
2018-09-24T12:02:22.278Z,0.67
2018-09-24T12:04:56.456Z,0.70
2018-09-24T12:07:30.631Z,0.60
2018-09-24T12:10:04.824Z,1.20
2018-09-24T12:12:38.855Z,0.90
2018-09-24T12:15:13.236Z,1.77
2018-09-24T12:17:47.796Z,0.87
2018-09-24T12:20:22.154Z,0.83
2018-09-24T12:22:56.401Z,0.73
2018-09-24T12:25:31.099Z,0.90
2018-09-24T12:28:05.132Z,1.20
2018-09-24T12:30:39.560Z,0.90
2018-09-24T12:33:13.837Z,0.80
2018-09-24T12:35:47.988Z,0.77
2018-09-24T12:38:22.148Z,0.87
2018-09-24T12:40:56.336Z,0.83
2018-09-24T12:43:30.472Z,0.73
2018-09-24T12:46:04.977Z,0.80
2018-09-24T12:48:40.288Z,0.60
2018-09-24T12:51:14.402Z,1.07
2018-09-24T12:53:48.508Z,0.80
2018-09-24T12:56:22.612Z,0.70
2018-09-24T12:58:57.425Z,0.70
2018-09-24T13:01:31.505Z,0.73
2018-09-24T13:04:05.655Z,0.70
2018-09-24T13:06:40.637Z,0.87
2018-09-24T13:09:14.761Z,0.70
2018-09-24T13:11:48.947Z,1.03
2018-09-24T13:14:22.977Z,6.13
2018-09-24T13:16:57.015Z,2.40
2018-09-24T13:19:31.146Z,4.40
2018-09-24T13:22:05.544Z,1.00
2018-09-24T13:24:41.823Z,0.90
2018-09-24T13:27:16.064Z,1.00
2018-09-24T13:29:50.299Z,0.83
2018-09-24T13:32:24.603Z,0.60
2018-09-24T13:34:58.834Z,0.90
2018-09-24T13:37:34.744Z,0.70
2018-09-24T13:40:09.114Z,0.80
2018-09-24T13:42:43.502Z,0.70
2018-09-24T13:45:17.685Z,0.70
2018-09-24T13:47:51.930Z,0.80
2018-09-24T13:50:26.165Z,0.60
2018-09-24T13:53:00.533Z,0.70
2018-09-24T13:55:35.261Z,0.80
2018-09-24T13:58:09.633Z,0.70
2018-09-24T14:00:43.701Z,0.80
2018-09-24T14:03:17.846Z,0.90
2018-09-24T14:05:52.165Z,0.80
2018-09-24T14:08:26.518Z,0.90
2018-09-24T14:11:00.901Z,0.80
2018-09-24T14:13:35.390Z,0.60
2018-09-24T14:16:09.757Z,0.90
2018-09-24T14:18:44.015Z,0.77
2018-09-24T14:21:18.111Z,0.70
2018-09-24T14:23:52.434Z,4.43
2018-09-24T14:26:26.822Z,0.90
2018-09-24T14:29:00.967Z,0.80
2018-09-24T14:31:35.056Z,0.90
2018-09-24T14:34:09.833Z,1.00
2018-09-24T14:36:45.582Z,0.80
2018-09-24T14:39:21.139Z,1.03
2018-09-24T14:41:55.277Z,1.03
2018-09-24T14:44:29.782Z,1.20
2018-09-24T14:47:04.131Z,0.97
2018-09-24T14:49:40.154Z,1.00
2018-09-24T14:52:14.565Z,1.27
2018-09-24T14:54:49.007Z,1.10
2018-09-24T14:57:23.264Z,0.90
2018-09-24T14:59:58.258Z,1.10
2018-09-24T15:02:33.074Z,1.00
2018-09-24T15:05:07.480Z,1.53
2018-09-24T15:07:41.919Z,1.27
2018-09-24T15:10:16.356Z,1.27
2018-09-24T15:12:51.086Z,1.13
2018-09-24T15:15:25.419Z,1.20
2018-09-24T15:17:59.551Z,1.20
2018-09-24T15:20:33.757Z,1.53
2018-09-24T15:23:07.862Z,1.20
2018-09-24T15:25:41.936Z,1.40
2018-09-24T15:28:16.141Z,1.30
2018-09-24T15:30:50.424Z,1.10
2018-09-24T15:33:24.602Z,1.17
2018-09-24T15:35:58.763Z,1.40
2018-09-24T15:38:33.059Z,1.10
2018-09-24T15:41:07.037Z,1.10
2018-09-24T15:43:41.666Z,1.20
2018-09-24T15:46:15.965Z,1.70
2018-09-24T15:48:51.925Z,1.47
2018-09-24T15:51:25.946Z,1.30
2018-09-24T15:54:00.188Z,1.53
2018-09-24T15:56:34.367Z,1.93
2018-09-24T15:59:08.513Z,2.00
2018-09-24T16:01:42.764Z,1.73
2018-09-24T16:04:17.029Z,1.60
2018-09-24T16:06:51.401Z,1.40
2018-09-24T16:09:25.544Z,1.80
2018-09-24T16:11:59.751Z,1.23
2018-09-24T16:14:33.934Z,1.30
2018-09-24T16:17:08.002Z,1.30
2018-09-24T16:19:42.242Z,1.33
2018-09-24T16:22:16.270Z,1.80
2018-09-24T16:24:50.487Z,1.43
2018-09-24T16:27:24.664Z,1.57
2018-09-24T16:29:58.800Z,1.40
2018-09-24T16:32:33.063Z,1.40
2018-09-24T16:35:07.209Z,1.30
2018-09-24T16:37:41.403Z,1.00
2018-09-24T16:40:15.579Z,1.20
2018-09-24T16:42:49.820Z,1.10
2018-09-24T16:45:24.055Z,1.07
2018-09-24T16:47:58.766Z,1.27
2018-09-24T16:50:32.881Z,1.50
2018-09-24T16:53:06.900Z,1.37
2018-09-24T16:55:41.068Z,0.90
2018-09-24T16:58:15.134Z,1.17
2018-09-24T17:00:49.240Z,0.97
2018-09-24T17:03:23.461Z,1.03
2018-09-24T17:05:57.570Z,0.90
2018-09-24T17:08:31.754Z,1.17
2018-09-24T17:11:07.216Z,0.90
2018-09-24T17:13:41.371Z,0.90
2018-09-24T17:16:15.509Z,1.37
2018-09-24T17:18:49.603Z,1.10
2018-09-24T17:21:23.729Z,1.20
2018-09-24T17:23:57.976Z,1.40
2018-09-24T17:26:32.240Z,1.30
2018-09-24T17:29:07.058Z,1.40
2018-09-24T17:31:41.620Z,1.20
2018-09-24T17:34:15.693Z,1.30
2018-09-24T17:36:49.837Z,0.97
2018-09-24T17:39:23.813Z,1.70
2018-09-24T17:41:58.025Z,1.40
2018-09-24T17:44:32.030Z,1.17
2018-09-24T17:47:06.191Z,1.87
2018-09-24T17:49:40.293Z,1.60
2018-09-24T17:52:14.396Z,1.27
2018-09-24T17:54:48.534Z,1.03
2018-09-24T17:57:22.648Z,1.30
2018-09-24T17:59:56.965Z,1.47
2018-09-24T18:02:31.123Z,1.67
2018-09-24T18:05:05.120Z,1.80
2018-09-24T18:07:39.206Z,2.30
2018-09-24T18:10:13.253Z,2.13
2018-09-24T18:12:47.409Z,2.00
2018-09-24T18:15:21.525Z,1.67
2018-09-24T18:17:55.676Z,1.40
2018-09-24T18:20:29.988Z,1.83
2018-09-24T18:23:04.132Z,1.90
2018-09-24T18:25:38.251Z,2.03
2018-09-24T18:28:12.660Z,1.40
2018-09-24T18:30:46.814Z,1.37
2018-09-24T18:33:21.605Z,1.73
2018-09-24T18:35:55.691Z,1.80
2018-09-24T18:38:29.976Z,1.60
2018-09-24T18:41:04.650Z,1.40
2018-09-24T18:43:38.681Z,1.40
2018-09-24T18:46:13.069Z,1.87
2018-09-24T18:48:47.241Z,1.30
2018-09-24T18:51:21.434Z,2.13
2018-09-24T18:53:55.441Z,2.33
2018-09-24T18:56:29.436Z,1.37
2018-09-24T18:59:03.616Z,1.53
2018-09-24T19:01:38.041Z,1.93
2018-09-24T19:04:13.147Z,2.03
2018-09-24T19:06:47.166Z,1.60
2018-09-24T19:09:21.463Z,1.87
2018-09-24T19:11:55.470Z,2.07
2018-09-24T19:14:29.663Z,2.50
2018-09-24T19:17:05.309Z,2.87
2018-09-24T19:19:39.421Z,3.07
2018-09-24T19:22:13.610Z,2.30
2018-09-24T19:24:47.806Z,2.13
2018-09-24T19:27:21.843Z,2.63
2018-09-24T19:29:56.397Z,2.33
2018-09-24T19:32:30.545Z,1.90
2018-09-24T19:35:04.581Z,1.90
2018-09-24T19:37:38.721Z,1.80
2018-09-24T19:40:13.119Z,1.80
2018-09-24T19:42:47.370Z,1.50
2018-09-24T19:45:26.174Z,2.30
2018-09-24T19:48:00.992Z,2.10
2018-09-24T19:50:35.165Z,2.47
2018-09-24T19:53:10.244Z,2.20
2018-09-24T19:55:44.539Z,2.13
2018-09-24T19:58:19.428Z,2.33
2018-09-24T20:00:53.618Z,2.20
2018-09-24T20:03:27.903Z,2.97
2018-09-24T20:06:02.157Z,2.53
2018-09-24T20:08:36.330Z,2.87
2018-09-24T20:11:10.528Z,2.77
2018-09-24T20:13:44.793Z,2.53
2018-09-24T20:16:19.625Z,3.20
2018-09-24T20:18:54.083Z,2.93
2018-09-24T20:21:28.402Z,3.20
2018-09-24T20:24:02.732Z,3.17
2018-09-24T20:26:36.860Z,2.97
2018-09-24T20:29:10.994Z,2.50
2018-09-24T20:31:45.180Z,2.80
2018-09-24T20:34:19.402Z,2.47
2018-09-24T20:36:53.766Z,2.37
2018-09-24T20:39:28.091Z,2.47
2018-09-24T20:42:02.832Z,2.00
2018-09-24T20:44:37.348Z,2.13
2018-09-24T20:47:11.504Z,2.00
2018-09-24T20:49:45.890Z,2.00
2018-09-24T20:52:24.447Z,1.93
2018-09-24T20:54:58.686Z,1.93
2018-09-24T20:57:32.878Z,1.90
2018-09-24T21:00:07.048Z,2.60
2018-09-24T21:02:41.202Z,2.00
2018-09-24T21:05:16.359Z,2.50
2018-09-24T21:07:50.456Z,2.70
2018-09-24T21:10:24.967Z,2.40
2018-09-24T21:12:59.008Z,2.63
2018-09-24T21:15:33.225Z,2.80
2018-09-24T21:18:07.428Z,2.73
2018-09-24T21:20:41.452Z,2.13
2018-09-24T21:23:15.980Z,2.20
2018-09-24T21:25:50.173Z,2.50
2018-09-24T21:28:24.186Z,2.90
2018-09-24T21:30:58.293Z,2.57
2018-09-24T21:33:32.389Z,2.53
2018-09-24T21:36:06.572Z,2.27
2018-09-24T21:38:40.603Z,2.57
2018-09-24T21:41:14.746Z,2.50
2018-09-24T21:43:48.931Z,2.57
2018-09-24T21:46:23.350Z,2.07
2018-09-24T21:48:57.272Z,2.53
2018-09-24T21:51:31.489Z,2.27
2018-09-24T21:54:05.618Z,2.20
2018-09-24T21:56:39.808Z,2.07
2018-09-24T21:59:14.059Z,2.10
2018-09-24T22:01:48.037Z,2.10
2018-09-24T22:04:22.159Z,2.07
2018-09-24T22:06:56.331Z,2.13
2018-09-24T22:09:30.540Z,1.87
2018-09-24T22:12:04.610Z,1.83
2018-09-24T22:14:38.776Z,2.10
2018-09-24T22:17:12.969Z,2.27
2018-09-24T22:19:47.172Z,2.20
2018-09-24T22:22:21.267Z,2.10
2018-09-24T22:24:55.518Z,1.83
2018-09-24T22:27:30.032Z,1.73
2018-09-24T22:30:04.076Z,2.30
2018-09-24T22:32:38.144Z,2.23
2018-09-24T22:35:12.415Z,2.07
2018-09-24T22:37:46.487Z,2.10
2018-09-24T22:40:20.681Z,2.27
2018-09-24T22:42:54.701Z,1.70
2018-09-24T22:45:28.772Z,2.10
2018-09-24T22:48:02.921Z,1.77
2018-09-24T22:50:37.012Z,1.53
2018-09-24T22:53:11.200Z,1.70
2018-09-24T22:55:45.460Z,1.93
2018-09-24T22:58:19.679Z,1.80
2018-09-24T23:00:53.855Z,1.70
2018-09-24T23:03:27.971Z,1.93
2018-09-24T23:06:02.153Z,1.60
2018-09-24T23:08:36.347Z,1.77
2018-09-24T23:11:10.497Z,1.70
2018-09-24T23:13:44.571Z,1.90
2018-09-24T23:16:18.532Z,1.90
2018-09-24T23:18:52.726Z,1.93
2018-09-24T23:21:26.701Z,2.20
2018-09-24T23:24:00.813Z,1.90
2018-09-24T23:26:34.932Z,2.03
2018-09-24T23:29:09.060Z,1.73
2018-09-24T23:31:43.178Z,1.70
2018-09-24T23:34:17.277Z,1.73
2018-09-24T23:36:51.500Z,1.80
2018-09-24T23:39:25.488Z,1.50
2018-09-24T23:41:59.658Z,1.37
2018-09-24T23:44:33.673Z,2.10
2018-09-24T23:47:08.081Z,1.60
2018-09-24T23:49:42.366Z,1.60
2018-09-24T23:52:16.520Z,1.90
2018-09-24T23:54:50.657Z,1.80
2018-09-24T23:57:24.721Z,1.70
2018-09-24T23:59:58.846Z,1.73
